sensor_id;sensor_type;location;lat;lon;timestamp;P1;durP1;ratioP1;P2;durP2;ratioP2
66559;SDS011;53413;49.878;8.142;2022-10-19T00:00:59;78.65;;;16.27;;
66559;SDS011;53413;49.878;8.142;2022-10-19T00:03:32;94.93;;;17.40;;
66559;SDS011;53413;49.878;8.142;2022-10-19T00:05:58;69.45;;;15.18;;
66559;SDS011;53413;49.878;8.142;2022-10-19T00:08:24;51.35;;;12.73;;
66559;SDS011;53413;49.878;8.142;2022-10-19T00:10:50;49.28;;;12.73;;
66559;SDS011;53413;49.878;8.142;2022-10-19T00:13:15;50.03;;;12.75;;
66559;SDS011;53413;49.878;8.142;2022-10-19T00:15:41;49.57;;;12.03;;
66559;SDS011;53413;49.878;8.142;2022-10-19T00:18:07;54.57;;;12.07;;
66559;SDS011;53413;49.878;8.142;2022-10-19T00:20:33;61.22;;;14.13;;
66559;SDS011;53413;49.878;8.142;2022-10-19T00:23:00;60.87;;;13.60;;
66559;SDS011;53413;49.878;8.142;2022-10-19T00:25:25;53.92;;;13.57;;
66559;SDS011;53413;49.878;8.142;2022-10-19T00:27:51;51.47;;;13.33;;
66559;SDS011;53413;49.878;8.142;2022-10-19T00:30:16;55.67;;;13.00;;
66559;SDS011;53413;49.878;8.142;2022-10-19T00:32:41;52.28;;;13.13;;
66559;SDS011;53413;49.878;8.142;2022-10-19T00:35:07;51.83;;;12.47;;
66559;SDS011;53413;49.878;8.142;2022-10-19T00:37:32;58.03;;;13.00;;
66559;SDS011;53413;49.878;8.142;2022-10-19T00:39:58;53.70;;;12.90;;
66559;SDS011;53413;49.878;8.142;2022-10-19T00:42:23;55.80;;;12.57;;
66559;SDS011;53413;49.878;8.142;2022-10-19T00:47:14;57.33;;;12.77;;
66559;SDS011;53413;49.878;8.142;2022-10-19T00:49:43;55.75;;;13.02;;
66559;SDS011;53413;49.878;8.142;2022-10-19T00:52:12;62.50;;;12.70;;
66559;SDS011;53413;49.878;8.142;2022-10-19T00:54:41;60.47;;;13.05;;
66559;SDS011;53413;49.878;8.142;2022-10-19T00:57:07;67.43;;;13.55;;
66559;SDS011;53413;49.878;8.142;2022-10-19T00:59:34;59.22;;;13.63;;
66559;SDS011;53413;49.878;8.142;2022-10-19T01:02:02;61.50;;;12.70;;
66559;SDS011;53413;49.878;8.142;2022-10-19T01:04:29;65.23;;;14.10;;
66559;SDS011;53413;49.878;8.142;2022-10-19T01:06:58;65.05;;;14.38;;
66559;SDS011;53413;49.878;8.142;2022-10-19T01:09:25;59.40;;;13.70;;
66559;SDS011;53413;49.878;8.142;2022-10-19T01:14:41;62.67;;;14.00;;
66559;SDS011;53413;49.878;8.142;2022-10-19T01:17:31;73.57;;;15.10;;
66559;SDS011;53413;49.878;8.142;2022-10-19T01:36:24;61.80;;;14.10;;
66559;SDS011;53413;49.878;8.142;2022-10-19T01:41:30;59.50;;;13.80;;
66559;SDS011;53413;49.878;8.142;2022-10-19T01:44:07;52.65;;;13.10;;
66559;SDS011;53413;49.878;8.142;2022-10-19T01:46:39;66.13;;;14.37;;
66559;SDS011;53413;49.878;8.142;2022-10-19T01:51:56;54.25;;;12.93;;
66559;SDS011;53413;49.878;8.142;2022-10-19T01:54:25;52.10;;;13.15;;
66559;SDS011;53413;49.878;8.142;2022-10-19T01:56:54;50.90;;;12.90;;
66559;SDS011;53413;49.878;8.142;2022-10-19T01:59:22;52.83;;;13.10;;
66559;SDS011;53413;49.878;8.142;2022-10-19T02:01:48;83.63;;;16.70;;
66559;SDS011;53413;49.878;8.142;2022-10-19T02:04:18;83.40;;;17.73;;
66559;SDS011;53413;49.878;8.142;2022-10-19T02:06:45;82.78;;;17.10;;
66559;SDS011;53413;49.878;8.142;2022-10-19T02:09:10;79.22;;;15.85;;
66559;SDS011;53413;49.878;8.142;2022-10-19T02:11:42;77.63;;;16.00;;
66559;SDS011;53413;49.878;8.142;2022-10-19T02:14:10;66.93;;;15.13;;
66559;SDS011;53413;49.878;8.142;2022-10-19T02:16:44;73.82;;;14.93;;
66559;SDS011;53413;49.878;8.142;2022-10-19T02:19:16;67.53;;;14.55;;
66559;SDS011;53413;49.878;8.142;2022-10-19T02:21:42;70.25;;;14.07;;
66559;SDS011;53413;49.878;8.142;2022-10-19T02:24:07;61.27;;;13.60;;
66559;SDS011;53413;49.878;8.142;2022-10-19T02:26:32;56.77;;;13.00;;
66559;SDS011;53413;49.878;8.142;2022-10-19T02:28:58;50.27;;;12.53;;
66559;SDS011;53413;49.878;8.142;2022-10-19T02:31:24;54.78;;;12.05;;
66559;SDS011;53413;49.878;8.142;2022-10-19T02:33:50;60.23;;;12.97;;
66559;SDS011;53413;49.878;8.142;2022-10-19T02:36:16;50.10;;;11.45;;
66559;SDS011;53413;49.878;8.142;2022-10-19T02:38:42;57.10;;;12.75;;
66559;SDS011;53413;49.878;8.142;2022-10-19T02:41:20;50.47;;;12.27;;
66559;SDS011;53413;49.878;8.142;2022-10-19T02:43:50;53.97;;;12.02;;
66559;SDS011;53413;49.878;8.142;2022-10-19T02:49:03;56.78;;;12.73;;
66559;SDS011;53413;49.878;8.142;2022-10-19T02:51:35;53.80;;;12.88;;
66559;SDS011;53413;49.878;8.142;2022-10-19T02:54:02;51.30;;;12.23;;
66559;SDS011;53413;49.878;8.142;2022-10-19T02:56:29;50.90;;;12.15;;
66559;SDS011;53413;49.878;8.142;2022-10-19T02:58:54;54.63;;;12.97;;
66559;SDS011;53413;49.878;8.142;2022-10-19T03:01:20;47.75;;;12.27;;
66559;SDS011;53413;49.878;8.142;2022-10-19T03:03:45;50.27;;;12.20;;
66559;SDS011;53413;49.878;8.142;2022-10-19T03:06:11;58.83;;;14.05;;
66559;SDS011;53413;49.878;8.142;2022-10-19T03:08:36;54.10;;;13.93;;
66559;SDS011;53413;49.878;8.142;2022-10-19T03:11:02;51.30;;;12.73;;
66559;SDS011;53413;49.878;8.142;2022-10-19T03:13:27;49.67;;;13.13;;
66559;SDS011;53413;49.878;8.142;2022-10-19T03:15:53;41.13;;;12.43;;
66559;SDS011;53413;49.878;8.142;2022-10-19T03:18:18;38.27;;;11.50;;
66559;SDS011;53413;49.878;8.142;2022-10-19T03:20:43;38.67;;;11.53;;
66559;SDS011;53413;49.878;8.142;2022-10-19T03:23:09;34.60;;;10.43;;
66559;SDS011;53413;49.878;8.142;2022-10-19T03:25:34;41.80;;;11.38;;
66559;SDS011;53413;49.878;8.142;2022-10-19T03:27:59;37.97;;;11.57;;
66559;SDS011;53413;49.878;8.142;2022-10-19T03:30:25;40.27;;;11.77;;
66559;SDS011;53413;49.878;8.142;2022-10-19T03:32:50;34.07;;;10.73;;
66559;SDS011;53413;49.878;8.142;2022-10-19T03:35:15;31.23;;;10.97;;
66559;SDS011;53413;49.878;8.142;2022-10-19T03:37:41;33.70;;;11.63;;
66559;SDS011;53413;49.878;8.142;2022-10-19T03:40:06;38.72;;;11.75;;
66559;SDS011;53413;49.878;8.142;2022-10-19T03:42:32;39.63;;;11.83;;
66559;SDS011;53413;49.878;8.142;2022-10-19T03:44:57;40.83;;;11.90;;
66559;SDS011;53413;49.878;8.142;2022-10-19T03:47:23;36.97;;;11.18;;
66559;SDS011;53413;49.878;8.142;2022-10-19T03:49:48;35.83;;;11.40;;
66559;SDS011;53413;49.878;8.142;2022-10-19T03:52:15;32.15;;;10.25;;
66559;SDS011;53413;49.878;8.142;2022-10-19T03:54:43;34.08;;;10.80;;
66559;SDS011;53413;49.878;8.142;2022-10-19T03:57:09;34.42;;;11.55;;
66559;SDS011;53413;49.878;8.142;2022-10-19T03:59:36;58.53;;;19.15;;
66559;SDS011;53413;49.878;8.142;2022-10-19T04:02:01;39.97;;;13.30;;
66559;SDS011;53413;49.878;8.142;2022-10-19T04:04:27;43.25;;;14.55;;
66559;SDS011;53413;49.878;8.142;2022-10-19T04:06:53;40.23;;;12.17;;
66559;SDS011;53413;49.878;8.142;2022-10-19T04:09:19;31.33;;;11.10;;
66559;SDS011;53413;49.878;8.142;2022-10-19T04:11:46;38.22;;;11.85;;
66559;SDS011;53413;49.878;8.142;2022-10-19T04:14:12;35.13;;;11.45;;
66559;SDS011;53413;49.878;8.142;2022-10-19T04:16:39;31.67;;;10.50;;
66559;SDS011;53413;49.878;8.142;2022-10-19T04:19:04;36.43;;;11.00;;
66559;SDS011;53413;49.878;8.142;2022-10-19T04:21:33;36.27;;;10.80;;
66559;SDS011;53413;49.878;8.142;2022-10-19T04:24:03;35.20;;;11.20;;
66559;SDS011;53413;49.878;8.142;2022-10-19T04:26:31;38.10;;;11.15;;
66559;SDS011;53413;49.878;8.142;2022-10-19T04:28:58;32.57;;;9.47;;
66559;SDS011;53413;49.878;8.142;2022-10-19T04:31:24;33.92;;;10.90;;
66559;SDS011;53413;49.878;8.142;2022-10-19T04:33:50;37.17;;;11.50;;
66559;SDS011;53413;49.878;8.142;2022-10-19T04:36:15;33.63;;;10.20;;
66559;SDS011;53413;49.878;8.142;2022-10-19T04:38:41;34.23;;;11.00;;
66559;SDS011;53413;49.878;8.142;2022-10-19T04:41:08;35.92;;;11.98;;
66559;SDS011;53413;49.878;8.142;2022-10-19T04:43:35;40.25;;;13.00;;
66559;SDS011;53413;49.878;8.142;2022-10-19T04:46:02;36.25;;;12.05;;
66559;SDS011;53413;49.878;8.142;2022-10-19T04:48:28;32.87;;;11.67;;
66559;SDS011;53413;49.878;8.142;2022-10-19T04:50:54;32.50;;;11.23;;
66559;SDS011;53413;49.878;8.142;2022-10-19T04:53:20;30.43;;;10.20;;
66559;SDS011;53413;49.878;8.142;2022-10-19T04:55:45;33.22;;;10.18;;
66559;SDS011;53413;49.878;8.142;2022-10-19T04:58:11;28.00;;;9.40;;
66559;SDS011;53413;49.878;8.142;2022-10-19T05:00:37;28.43;;;9.63;;
66559;SDS011;53413;49.878;8.142;2022-10-19T05:03:03;29.88;;;10.88;;
66559;SDS011;53413;49.878;8.142;2022-10-19T05:05:28;32.55;;;11.00;;
66559;SDS011;53413;49.878;8.142;2022-10-19T05:07:54;33.47;;;11.50;;
66559;SDS011;53413;49.878;8.142;2022-10-19T05:10:19;33.10;;;11.67;;
66559;SDS011;53413;49.878;8.142;2022-10-19T05:12:44;33.33;;;11.83;;
66559;SDS011;53413;49.878;8.142;2022-10-19T05:15:10;34.37;;;11.30;;
66559;SDS011;53413;49.878;8.142;2022-10-19T05:17:35;30.27;;;11.07;;
66559;SDS011;53413;49.878;8.142;2022-10-19T05:20:00;29.90;;;11.00;;
66559;SDS011;53413;49.878;8.142;2022-10-19T05:22:26;26.52;;;10.30;;
66559;SDS011;53413;49.878;8.142;2022-10-19T05:24:51;26.97;;;9.90;;
66559;SDS011;53413;49.878;8.142;2022-10-19T05:27:17;28.37;;;10.07;;
66559;SDS011;53413;49.878;8.142;2022-10-19T05:29:42;28.53;;;10.17;;
66559;SDS011;53413;49.878;8.142;2022-10-19T05:32:07;26.93;;;9.73;;
66559;SDS011;53413;49.878;8.142;2022-10-19T05:34:33;24.80;;;9.70;;
66559;SDS011;53413;49.878;8.142;2022-10-19T05:36:58;26.23;;;9.60;;
66559;SDS011;53413;49.878;8.142;2022-10-19T05:39:23;28.80;;;9.35;;
66559;SDS011;53413;49.878;8.142;2022-10-19T05:41:49;25.15;;;9.27;;
66559;SDS011;53413;49.878;8.142;2022-10-19T05:44:16;26.13;;;9.50;;
66559;SDS011;53413;49.878;8.142;2022-10-19T05:46:43;24.33;;;9.18;;
66559;SDS011;53413;49.878;8.142;2022-10-19T05:49:13;24.33;;;8.75;;
66559;SDS011;53413;49.878;8.142;2022-10-19T05:51:39;25.60;;;8.80;;
66559;SDS011;53413;49.878;8.142;2022-10-19T05:54:05;25.40;;;8.23;;
66559;SDS011;53413;49.878;8.142;2022-10-19T05:56:30;23.17;;;9.03;;
66559;SDS011;53413;49.878;8.142;2022-10-19T05:59:00;22.60;;;8.63;;
66559;SDS011;53413;49.878;8.142;2022-10-19T06:01:27;20.13;;;8.25;;
66559;SDS011;53413;49.878;8.142;2022-10-19T06:03:54;22.80;;;8.30;;
66559;SDS011;53413;49.878;8.142;2022-10-19T06:06:21;19.30;;;8.15;;
66559;SDS011;53413;49.878;8.142;2022-10-19T06:08:48;20.85;;;7.88;;
66559;SDS011;53413;49.878;8.142;2022-10-19T06:11:15;22.17;;;8.18;;
66559;SDS011;53413;49.878;8.142;2022-10-19T06:13:49;24.35;;;7.80;;
66559;SDS011;53413;49.878;8.142;2022-10-19T06:16:17;22.47;;;8.10;;
66559;SDS011;53413;49.878;8.142;2022-10-19T06:18:44;21.13;;;8.18;;
66559;SDS011;53413;49.878;8.142;2022-10-19T06:21:10;23.40;;;8.50;;
66559;SDS011;53413;49.878;8.142;2022-10-19T06:23:40;24.15;;;7.97;;
66559;SDS011;53413;49.878;8.142;2022-10-19T06:26:07;24.33;;;8.63;;
66559;SDS011;53413;49.878;8.142;2022-10-19T06:28:34;27.80;;;8.50;;
66559;SDS011;53413;49.878;8.142;2022-10-19T06:31:01;27.60;;;8.35;;
66559;SDS011;53413;49.878;8.142;2022-10-19T06:33:26;27.13;;;9.03;;
66559;SDS011;53413;49.878;8.142;2022-10-19T06:35:53;24.05;;;8.27;;
66559;SDS011;53413;49.878;8.142;2022-10-19T06:38:19;26.67;;;8.10;;
66559;SDS011;53413;49.878;8.142;2022-10-19T06:40:44;26.08;;;8.95;;
66559;SDS011;53413;49.878;8.142;2022-10-19T06:43:10;22.63;;;8.03;;
66559;SDS011;53413;49.878;8.142;2022-10-19T06:45:36;25.67;;;8.27;;
66559;SDS011;53413;49.878;8.142;2022-10-19T06:48:02;24.23;;;8.35;;
66559;SDS011;53413;49.878;8.142;2022-10-19T06:50:27;22.97;;;7.57;;
66559;SDS011;53413;49.878;8.142;2022-10-19T06:52:52;23.20;;;8.63;;
66559;SDS011;53413;49.878;8.142;2022-10-19T06:55:18;22.73;;;8.03;;
66559;SDS011;53413;49.878;8.142;2022-10-19T06:57:43;23.45;;;8.32;;
66559;SDS011;53413;49.878;8.142;2022-10-19T07:00:09;22.55;;;8.10;;
66559;SDS011;53413;49.878;8.142;2022-10-19T07:02:35;21.77;;;7.22;;
66559;SDS011;53413;49.878;8.142;2022-10-19T07:05:01;24.77;;;7.23;;
66559;SDS011;53413;49.878;8.142;2022-10-19T07:07:26;21.30;;;7.38;;
66559;SDS011;53413;49.878;8.142;2022-10-19T07:09:52;19.80;;;6.68;;
66559;SDS011;53413;49.878;8.142;2022-10-19T07:12:17;16.43;;;6.83;;
66559;SDS011;53413;49.878;8.142;2022-10-19T07:14:43;20.25;;;7.10;;
66559;SDS011;53413;49.878;8.142;2022-10-19T07:17:09;20.42;;;7.53;;
66559;SDS011;53413;49.878;8.142;2022-10-19T07:19:35;23.15;;;7.43;;
66559;SDS011;53413;49.878;8.142;2022-10-19T07:22:01;20.10;;;7.47;;
66559;SDS011;53413;49.878;8.142;2022-10-19T07:24:26;22.00;;;7.00;;
66559;SDS011;53413;49.878;8.142;2022-10-19T07:26:54;18.55;;;7.07;;
66559;SDS011;53413;49.878;8.142;2022-10-19T07:29:19;20.65;;;7.32;;
66559;SDS011;53413;49.878;8.142;2022-10-19T07:31:45;18.90;;;7.27;;
66559;SDS011;53413;49.878;8.142;2022-10-19T07:34:10;19.07;;;6.67;;
66559;SDS011;53413;49.878;8.142;2022-10-19T07:36:37;18.20;;;6.95;;
66559;SDS011;53413;49.878;8.142;2022-10-19T07:39:04;16.83;;;6.35;;
66559;SDS011;53413;49.878;8.142;2022-10-19T07:41:31;16.83;;;6.57;;
66559;SDS011;53413;49.878;8.142;2022-10-19T07:43:57;18.05;;;6.68;;
66559;SDS011;53413;49.878;8.142;2022-10-19T07:46:23;18.00;;;7.10;;
66559;SDS011;53413;49.878;8.142;2022-10-19T07:48:50;18.02;;;6.55;;
66559;SDS011;53413;49.878;8.142;2022-10-19T07:51:16;17.13;;;6.57;;
66559;SDS011;53413;49.878;8.142;2022-10-19T07:53:43;17.35;;;6.78;;
66559;SDS011;53413;49.878;8.142;2022-10-19T07:56:13;15.38;;;6.05;;
66559;SDS011;53413;49.878;8.142;2022-10-19T07:58:42;14.77;;;6.07;;
66559;SDS011;53413;49.878;8.142;2022-10-19T08:01:09;15.65;;;6.00;;
66559;SDS011;53413;49.878;8.142;2022-10-19T08:03:35;15.98;;;6.00;;
66559;SDS011;53413;49.878;8.142;2022-10-19T08:06:02;14.13;;;5.60;;
66559;SDS011;53413;49.878;8.142;2022-10-19T08:08:29;13.07;;;5.93;;
66559;SDS011;53413;49.878;8.142;2022-10-19T08:10:55;14.57;;;5.65;;
66559;SDS011;53413;49.878;8.142;2022-10-19T08:13:21;13.03;;;5.27;;
66559;SDS011;53413;49.878;8.142;2022-10-19T08:15:47;12.73;;;5.40;;
66559;SDS011;53413;49.878;8.142;2022-10-19T08:18:12;13.13;;;5.43;;
66559;SDS011;53413;49.878;8.142;2022-10-19T08:20:42;14.50;;;5.93;;
66559;SDS011;53413;49.878;8.142;2022-10-19T08:23:08;11.10;;;5.85;;
66559;SDS011;53413;49.878;8.142;2022-10-19T08:25:34;12.02;;;5.88;;
66559;SDS011;53413;49.878;8.142;2022-10-19T08:28:01;12.18;;;5.57;;
66559;SDS011;53413;49.878;8.142;2022-10-19T08:30:26;14.80;;;5.67;;
66559;SDS011;53413;49.878;8.142;2022-10-19T08:32:52;11.50;;;5.53;;
66559;SDS011;53413;49.878;8.142;2022-10-19T08:35:17;10.40;;;5.00;;
66559;SDS011;53413;49.878;8.142;2022-10-19T08:37:42;11.47;;;5.27;;
66559;SDS011;53413;49.878;8.142;2022-10-19T08:40:12;12.33;;;5.60;;
66559;SDS011;53413;49.878;8.142;2022-10-19T08:45:30;11.23;;;5.30;;
66559;SDS011;53413;49.878;8.142;2022-10-19T08:50:41;13.05;;;5.43;;
66559;SDS011;53413;49.878;8.142;2022-10-19T09:04:25;11.70;;;4.97;;
66559;SDS011;53413;49.878;8.142;2022-10-19T09:07:02;12.52;;;5.55;;
66559;SDS011;53413;49.878;8.142;2022-10-19T09:09:45;10.65;;;4.82;;
66559;SDS011;53413;49.878;8.142;2022-10-19T09:12:16;11.38;;;5.35;;
66559;SDS011;53413;49.878;8.142;2022-10-19T09:14:56;9.40;;;5.10;;
66559;SDS011;53413;49.878;8.142;2022-10-19T09:17:24;13.38;;;5.75;;
66559;SDS011;53413;49.878;8.142;2022-10-19T09:19:50;11.97;;;5.37;;
66559;SDS011;53413;49.878;8.142;2022-10-19T09:22:20;11.93;;;5.35;;
66559;SDS011;53413;49.878;8.142;2022-10-19T09:24:52;11.95;;;5.70;;
66559;SDS011;53413;49.878;8.142;2022-10-19T09:27:28;13.25;;;5.45;;
66559;SDS011;53413;49.878;8.142;2022-10-19T09:30:00;13.52;;;5.50;;
66559;SDS011;53413;49.878;8.142;2022-10-19T09:32:32;10.95;;;5.28;;
66559;SDS011;53413;49.878;8.142;2022-10-19T09:35:02;10.15;;;5.40;;
66559;SDS011;53413;49.878;8.142;2022-10-19T09:37:43;12.77;;;5.22;;
66559;SDS011;53413;49.878;8.142;2022-10-19T09:40:16;9.88;;;5.18;;
66559;SDS011;53413;49.878;8.142;2022-10-19T09:42:43;11.00;;;5.55;;
66559;SDS011;53413;49.878;8.142;2022-10-19T09:45:52;13.33;;;5.50;;
66559;SDS011;53413;49.878;8.142;2022-10-19T09:48:09;10.95;;;5.20;;
66559;SDS011;53413;49.878;8.142;2022-10-19T09:50:42;13.27;;;5.80;;
66559;SDS011;53413;49.878;8.142;2022-10-19T09:53:14;11.80;;;5.50;;
66559;SDS011;53413;49.878;8.142;2022-10-19T09:55:43;12.85;;;5.45;;
66559;SDS011;53413;49.878;8.142;2022-10-19T10:00:41;10.23;;;5.30;;
66559;SDS011;53413;49.878;8.142;2022-10-19T10:05:58;12.63;;;5.30;;
66559;SDS011;53413;49.878;8.142;2022-10-19T10:08:29;12.77;;;5.40;;
66559;SDS011;53413;49.878;8.142;2022-10-19T10:13:41;10.95;;;5.28;;
66559;SDS011;53413;49.878;8.142;2022-10-19T10:16:13;13.50;;;5.60;;
66559;SDS011;53413;49.878;8.142;2022-10-19T10:18:53;12.38;;;5.50;;
66559;SDS011;53413;49.878;8.142;2022-10-19T10:21:26;12.60;;;5.68;;
66559;SDS011;53413;49.878;8.142;2022-10-19T10:26:29;12.32;;;5.78;;
66559;SDS011;53413;49.878;8.142;2022-10-19T10:28:56;14.47;;;5.80;;
66559;SDS011;53413;49.878;8.142;2022-10-19T10:31:22;14.98;;;5.57;;
66559;SDS011;53413;49.878;8.142;2022-10-19T10:33:54;13.10;;;5.55;;
66559;SDS011;53413;49.878;8.142;2022-10-19T10:36:25;14.60;;;6.00;;
66559;SDS011;53413;49.878;8.142;2022-10-19T10:38:55;13.98;;;5.90;;
66559;SDS011;53413;49.878;8.142;2022-10-19T10:41:28;13.48;;;5.78;;
66559;SDS011;53413;49.878;8.142;2022-10-19T10:46:23;12.52;;;5.50;;
66559;SDS011;53413;49.878;8.142;2022-10-19T10:48:56;12.53;;;5.80;;
66559;SDS011;53413;49.878;8.142;2022-10-19T10:57:09;10.40;;;5.10;;
66559;SDS011;53413;49.878;8.142;2022-10-19T11:02:28;12.47;;;6.00;;
66559;SDS011;53413;49.878;8.142;2022-10-19T11:10:29;12.85;;;5.70;;
66559;SDS011;53413;49.878;8.142;2022-10-19T11:15:52;14.47;;;6.53;;
66559;SDS011;53413;49.878;8.142;2022-10-19T11:18:36;12.93;;;5.88;;
66559;SDS011;53413;49.878;8.142;2022-10-19T11:21:18;13.35;;;6.10;;
66559;SDS011;53413;49.878;8.142;2022-10-19T11:31:54;14.02;;;5.80;;
66559;SDS011;53413;49.878;8.142;2022-10-19T11:40:07;15.50;;;6.78;;
66559;SDS011;53413;49.878;8.142;2022-10-19T12:12:37;17.00;;;6.45;;
66559;SDS011;53413;49.878;8.142;2022-10-19T12:15:17;16.58;;;6.57;;
66559;SDS011;53413;49.878;8.142;2022-10-19T12:17:53;18.50;;;6.78;;
66559;SDS011;53413;49.878;8.142;2022-10-19T12:23:33;13.77;;;6.13;;
66559;SDS011;53413;49.878;8.142;2022-10-19T12:26:02;16.75;;;6.85;;
66559;SDS011;53413;49.878;8.142;2022-10-19T12:28:32;15.73;;;6.40;;
66559;SDS011;53413;49.878;8.142;2022-10-19T12:31:01;15.52;;;6.07;;
66559;SDS011;53413;49.878;8.142;2022-10-19T12:47:20;13.95;;;6.07;;
66559;SDS011;53413;49.878;8.142;2022-10-19T12:49:48;14.17;;;6.03;;
66559;SDS011;53413;49.878;8.142;2022-10-19T12:52:15;13.25;;;6.20;;
66559;SDS011;53413;49.878;8.142;2022-10-19T12:57:39;17.10;;;8.55;;
66559;SDS011;53413;49.878;8.142;2022-10-19T13:02:53;13.07;;;6.30;;
66559;SDS011;53413;49.878;8.142;2022-10-19T13:05:23;14.38;;;6.38;;
66559;SDS011;53413;49.878;8.142;2022-10-19T13:07:52;14.38;;;6.15;;
66559;SDS011;53413;49.878;8.142;2022-10-19T13:10:21;13.83;;;6.03;;
66559;SDS011;53413;49.878;8.142;2022-10-19T13:12:48;14.40;;;6.10;;
66559;SDS011;53413;49.878;8.142;2022-10-19T13:18:11;13.93;;;5.57;;
66559;SDS011;53413;49.878;8.142;2022-10-19T13:25:40;14.70;;;7.00;;
66559;SDS011;53413;49.878;8.142;2022-10-19T13:38:31;13.80;;;6.78;;
66559;SDS011;53413;49.878;8.142;2022-10-19T13:41:18;13.33;;;6.27;;
66559;SDS011;53413;49.878;8.142;2022-10-19T13:46:17;12.27;;;6.07;;
66559;SDS011;53413;49.878;8.142;2022-10-19T13:59:38;12.73;;;6.30;;
66559;SDS011;53413;49.878;8.142;2022-10-19T14:04:42;10.95;;;5.60;;
66559;SDS011;53413;49.878;8.142;2022-10-19T14:07:15;10.95;;;5.57;;
66559;SDS011;53413;49.878;8.142;2022-10-19T14:12:26;11.95;;;5.75;;
66559;SDS011;53413;49.878;8.142;2022-10-19T14:14:53;11.98;;;6.15;;
66559;SDS011;53413;49.878;8.142;2022-10-19T14:17:20;13.65;;;6.80;;
66559;SDS011;53413;49.878;8.142;2022-10-19T14:19:54;13.68;;;6.43;;
66559;SDS011;53413;49.878;8.142;2022-10-19T14:22:30;11.90;;;5.65;;
66559;SDS011;53413;49.878;8.142;2022-10-19T14:25:16;10.95;;;5.60;;
66559;SDS011;53413;49.878;8.142;2022-10-19T14:27:44;11.18;;;5.97;;
66559;SDS011;53413;49.878;8.142;2022-10-19T14:30:21;10.93;;;5.70;;
66559;SDS011;53413;49.878;8.142;2022-10-19T14:32:49;11.02;;;5.68;;
66559;SDS011;53413;49.878;8.142;2022-10-19T14:35:22;12.32;;;6.07;;
66559;SDS011;53413;49.878;8.142;2022-10-19T14:37:51;10.30;;;5.43;;
66559;SDS011;53413;49.878;8.142;2022-10-19T14:40:29;11.63;;;5.70;;
66559;SDS011;53413;49.878;8.142;2022-10-19T14:42:57;10.13;;;5.50;;
66559;SDS011;53413;49.878;8.142;2022-10-19T14:45:25;9.85;;;5.35;;
66559;SDS011;53413;49.878;8.142;2022-10-19T14:48:02;11.13;;;5.03;;
66559;SDS011;53413;49.878;8.142;2022-10-19T14:50:32;10.90;;;4.88;;
66559;SDS011;53413;49.878;8.142;2022-10-19T14:55:42;12.63;;;5.18;;
66559;SDS011;53413;49.878;8.142;2022-10-19T14:58:09;13.73;;;5.13;;
66559;SDS011;53413;49.878;8.142;2022-10-19T15:00:39;11.45;;;5.30;;
66559;SDS011;53413;49.878;8.142;2022-10-19T15:03:05;11.38;;;5.25;;
66559;SDS011;53413;49.878;8.142;2022-10-19T15:05:36;11.43;;;5.75;;
66559;SDS011;53413;49.878;8.142;2022-10-19T15:08:07;11.23;;;5.53;;
66559;SDS011;53413;49.878;8.142;2022-10-19T15:10:41;10.60;;;5.60;;
66559;SDS011;53413;49.878;8.142;2022-10-19T15:13:15;10.55;;;5.53;;
66559;SDS011;53413;49.878;8.142;2022-10-19T15:15:43;10.93;;;5.38;;
66559;SDS011;53413;49.878;8.142;2022-10-19T15:18:12;12.47;;;5.90;;
66559;SDS011;53413;49.878;8.142;2022-10-19T15:20:40;11.27;;;5.32;;
66559;SDS011;53413;49.878;8.142;2022-10-19T15:25:58;10.67;;;5.70;;
66559;SDS011;53413;49.878;8.142;2022-10-19T15:31:15;11.32;;;4.93;;
66559;SDS011;53413;49.878;8.142;2022-10-19T15:33:43;10.50;;;5.25;;
66559;SDS011;53413;49.878;8.142;2022-10-19T15:36:30;10.40;;;4.72;;
66559;SDS011;53413;49.878;8.142;2022-10-19T15:41:26;11.03;;;5.33;;
66559;SDS011;53413;49.878;8.142;2022-10-19T15:43:56;10.80;;;5.13;;
66559;SDS011;53413;49.878;8.142;2022-10-19T15:46:25;12.10;;;5.40;;
66559;SDS011;53413;49.878;8.142;2022-10-19T15:51:40;10.75;;;5.10;;
66559;SDS011;53413;49.878;8.142;2022-10-19T15:54:08;10.98;;;4.97;;
66559;SDS011;53413;49.878;8.142;2022-10-19T15:56:34;10.85;;;4.82;;
66559;SDS011;53413;49.878;8.142;2022-10-19T15:59:04;10.55;;;4.90;;
66559;SDS011;53413;49.878;8.142;2022-10-19T16:01:34;11.35;;;5.20;;
66559;SDS011;53413;49.878;8.142;2022-10-19T16:04:00;12.93;;;5.50;;
66559;SDS011;53413;49.878;8.142;2022-10-19T16:06:26;12.20;;;5.45;;
66559;SDS011;53413;49.878;8.142;2022-10-19T16:08:54;10.82;;;4.60;;
66559;SDS011;53413;49.878;8.142;2022-10-19T16:11:20;11.10;;;4.80;;
66559;SDS011;53413;49.878;8.142;2022-10-19T16:13:47;10.60;;;4.57;;
66559;SDS011;53413;49.878;8.142;2022-10-19T16:16:15;10.07;;;4.90;;
66559;SDS011;53413;49.878;8.142;2022-10-19T16:18:48;9.45;;;4.75;;
66559;SDS011;53413;49.878;8.142;2022-10-19T16:21:14;10.02;;;4.53;;
66559;SDS011;53413;49.878;8.142;2022-10-19T16:23:40;11.60;;;5.38;;
66559;SDS011;53413;49.878;8.142;2022-10-19T16:26:06;10.77;;;4.93;;
66559;SDS011;53413;49.878;8.142;2022-10-19T16:28:32;11.23;;;4.90;;
66559;SDS011;53413;49.878;8.142;2022-10-19T16:30:57;11.77;;;4.90;;
66559;SDS011;53413;49.878;8.142;2022-10-19T16:33:23;11.50;;;5.37;;
66559;SDS011;53413;49.878;8.142;2022-10-19T16:35:48;12.10;;;5.30;;
66559;SDS011;53413;49.878;8.142;2022-10-19T16:38:14;11.40;;;5.00;;
66559;SDS011;53413;49.878;8.142;2022-10-19T16:40:39;12.13;;;5.38;;
66559;SDS011;53413;49.878;8.142;2022-10-19T16:43:05;11.63;;;5.50;;
66559;SDS011;53413;49.878;8.142;2022-10-19T16:45:30;12.95;;;5.70;;
66559;SDS011;53413;49.878;8.142;2022-10-19T16:47:56;13.18;;;5.78;;
66559;SDS011;53413;49.878;8.142;2022-10-19T16:50:22;12.60;;;5.60;;
66559;SDS011;53413;49.878;8.142;2022-10-19T16:52:53;12.77;;;5.57;;
66559;SDS011;53413;49.878;8.142;2022-10-19T16:55:28;15.25;;;6.00;;
66559;SDS011;53413;49.878;8.142;2022-10-19T16:57:54;15.43;;;6.00;;
66559;SDS011;53413;49.878;8.142;2022-10-19T17:00:20;14.18;;;5.78;;
66559;SDS011;53413;49.878;8.142;2022-10-19T17:02:45;15.57;;;6.43;;
66559;SDS011;53413;49.878;8.142;2022-10-19T17:05:11;14.13;;;6.38;;
66559;SDS011;53413;49.878;8.142;2022-10-19T17:07:37;14.10;;;6.70;;
66559;SDS011;53413;49.878;8.142;2022-10-19T17:10:02;13.88;;;6.10;;
66559;SDS011;53413;49.878;8.142;2022-10-19T17:12:28;14.82;;;6.82;;
66559;SDS011;53413;49.878;8.142;2022-10-19T17:14:53;14.97;;;6.20;;
66559;SDS011;53413;49.878;8.142;2022-10-19T17:17:19;14.43;;;7.17;;
66559;SDS011;53413;49.878;8.142;2022-10-19T17:19:44;15.05;;;6.47;;
66559;SDS011;53413;49.878;8.142;2022-10-19T17:22:10;15.70;;;6.30;;
66559;SDS011;53413;49.878;8.142;2022-10-19T17:24:36;14.27;;;6.97;;
66559;SDS011;53413;49.878;8.142;2022-10-19T17:27:03;14.03;;;6.37;;
66559;SDS011;53413;49.878;8.142;2022-10-19T17:29:28;14.38;;;6.20;;
66559;SDS011;53413;49.878;8.142;2022-10-19T17:31:54;12.97;;;6.10;;
66559;SDS011;53413;49.878;8.142;2022-10-19T17:34:19;13.43;;;6.33;;
66559;SDS011;53413;49.878;8.142;2022-10-19T17:36:45;15.13;;;6.83;;
66559;SDS011;53413;49.878;8.142;2022-10-19T17:39:18;13.43;;;6.10;;
66559;SDS011;53413;49.878;8.142;2022-10-19T17:41:45;14.07;;;6.78;;
66559;SDS011;53413;49.878;8.142;2022-10-19T17:44:11;12.02;;;5.38;;
66559;SDS011;53413;49.878;8.142;2022-10-19T17:46:37;12.27;;;6.17;;
66559;SDS011;53413;49.878;8.142;2022-10-19T17:49:03;17.88;;;6.72;;